createdAt,value
2022-10-23T00:00:33.298Z,95253.56
2022-10-23T00:01:40.549Z,95252.81
2022-10-23T00:02:42.405Z,95255.59
2022-10-23T00:03:44.982Z,95252.25
2022-10-23T00:04:46.541Z,95245.69
2022-10-23T00:05:48.114Z,95247.41
2022-10-23T00:06:50.179Z,95250.53
2022-10-23T00:07:53.375Z,95248.50
2022-10-23T00:08:55.753Z,95255.59
2022-10-23T00:09:57.273Z,95252.25
2022-10-23T00:10:58.791Z,95247.41
2022-10-23T00:12:00.347Z,95250.00
2022-10-23T00:13:02.641Z,95245.91
2022-10-23T00:14:06.619Z,95244.41
2022-10-23T00:15:08.523Z,95247.75
2022-10-23T00:16:10.642Z,95247.75
2022-10-23T00:17:12.767Z,95250.53
2022-10-23T00:18:14.289Z,95245.69
2022-10-23T00:19:16.086Z,95247.75
2022-10-23T00:20:18.095Z,95241.41
2022-10-23T00:21:20.025Z,95230.22
2022-10-23T00:22:21.627Z,95220.50
2022-10-23T00:23:23.837Z,95215.47
2022-10-23T00:24:25.349Z,95211.19
2022-10-23T00:25:26.917Z,95216.03
2022-10-23T00:26:28.441Z,95218.59
2022-10-23T00:27:29.962Z,95220.09
2022-10-23T00:28:31.487Z,95230.53
2022-10-23T00:29:33.018Z,95236.13
2022-10-23T00:30:34.541Z,95229.78
2022-10-23T00:31:37.380Z,95224.19
2022-10-23T00:32:39.190Z,95229.78
2022-10-23T00:33:41.243Z,95230.53
2022-10-23T00:34:42.807Z,95236.13
2022-10-23T00:35:44.581Z,95239.66
2022-10-23T00:36:46.114Z,95246.78
2022-10-23T00:37:47.609Z,95246.78
2022-10-23T00:38:50.045Z,95249.59
2022-10-23T00:39:51.630Z,95242.69
2022-10-23T00:40:53.179Z,95245.50
2022-10-23T00:41:54.741Z,95245.50
2022-10-23T00:42:56.306Z,95243.25
2022-10-23T00:44:05.445Z,95246.56
2022-10-23T00:45:18.291Z,95237.97
2022-10-23T00:46:19.874Z,95247.53
2022-10-23T00:47:21.692Z,95241.19
2022-10-23T00:48:25.493Z,95237.66
2022-10-23T00:49:28.264Z,95233.56
2022-10-23T00:50:32.595Z,95233.00
2022-10-23T00:51:41.986Z,95225.69
2022-10-23T00:52:50.589Z,95228.47
2022-10-23T00:54:06.660Z,95226.47
2022-10-23T00:55:21.389Z,95223.31
2022-10-23T00:56:23.048Z,95227.41
2022-10-23T00:57:25.243Z,95216.03
2022-10-23T00:58:26.841Z,95223.44
2022-10-23T00:59:29.097Z,95231.41
2022-10-23T01:00:42.294Z,95227.44
2022-10-23T01:01:44.333Z,95222.28
2022-10-23T01:02:46.260Z,95217.97
2022-10-23T01:03:48.895Z,95208.28
2022-10-23T01:04:51.251Z,95223.78
2022-10-23T01:06:12.961Z,95205.50
2022-10-23T01:07:33.346Z,95212.38
2022-10-23T01:08:56.218Z,95212.91
2022-10-23T01:10:15.262Z,95208.81
2022-10-23T01:11:29.045Z,95199.91
2022-10-23T01:13:00.625Z,95205.81
2022-10-23T01:14:19.922Z,95210.84
2022-10-23T01:15:44.649Z,95214.75
2022-10-23T01:17:17.115Z,95231.97
2022-10-23T01:18:32.757Z,95232.72
2022-10-23T01:20:01.454Z,95231.97
2022-10-23T01:21:12.313Z,95248.94
2022-10-23T01:22:33.172Z,95253.47
2022-10-23T01:24:11.755Z,95269.81
2022-10-23T01:25:16.145Z,95273.03
2022-10-23T01:26:31.560Z,95265.28
2022-10-23T01:27:37.873Z,95260.13
2022-10-23T01:28:51.037Z,95263.25
2022-10-23T01:30:11.764Z,95269.59
2022-10-23T01:31:19.039Z,95278.22
2022-10-23T01:32:40.931Z,95292.50
2022-10-23T01:33:51.332Z,95302.06
2022-10-23T01:35:03.231Z,95311.22
2022-10-23T01:36:08.767Z,95309.16
2022-10-23T01:37:14.050Z,95299.50
2022-10-23T01:38:23.063Z,95309.72
2022-10-23T01:39:29.949Z,95318.84
2022-10-23T01:40:41.743Z,95308.66
2022-10-23T01:41:51.430Z,95314.00
2022-10-23T01:42:57.303Z,95316.28
2022-10-23T01:44:24.554Z,95310.25
2022-10-23T01:45:36.254Z,95312.19
2022-10-23T01:46:38.000Z,95321.56
2022-10-23T01:47:42.111Z,95317.47
2022-10-23T01:48:51.456Z,95309.16
2022-10-23T01:49:55.991Z,95311.66
2022-10-23T01:51:01.737Z,95312.19
2022-10-23T01:52:07.451Z,95306.59
2022-10-23T01:53:09.139Z,95307.03
2022-10-23T01:54:13.791Z,95293.59
2022-10-23T01:55:15.864Z,95288.00
2022-10-23T01:56:21.792Z,95291.13
2022-10-23T01:57:25.666Z,95283.91
2022-10-23T01:58:29.786Z,95275.28
2022-10-23T01:59:36.863Z,95277.88
2022-10-23T02:00:40.867Z,95276.25
2022-10-23T02:01:46.340Z,95284.84
2022-10-23T02:02:50.252Z,95274.63
2022-10-23T02:03:53.518Z,95281.72
2022-10-23T02:05:12.296Z,95277.56
2022-10-23T02:06:14.095Z,95280.97
2022-10-23T02:07:15.715Z,95289.59
2022-10-23T02:08:17.387Z,95286.25
2022-10-23T02:09:19.202Z,95291.09
2022-10-23T02:10:23.769Z,95289.03
2022-10-23T02:11:25.391Z,95298.19
2022-10-23T02:12:31.727Z,95291.09
2022-10-23T02:13:47.976Z,95295.50
2022-10-23T02:14:57.213Z,95306.38
2022-10-23T02:16:17.362Z,95304.44
2022-10-23T02:17:32.919Z,95301.09
2022-10-23T02:18:46.138Z,95298.84
2022-10-23T02:19:58.445Z,95312.81
2022-10-23T02:21:07.746Z,95328.34
2022-10-23T02:22:14.533Z,95318.41
2022-10-23T02:23:50.409Z,95323.25
2022-10-23T02:25:03.687Z,95324.78
2022-10-23T02:26:15.634Z,95328.09
2022-10-23T02:27:23.838Z,95322.00
2022-10-23T02:28:38.807Z,95327.91
2022-10-23T02:29:46.770Z,95331.22
2022-10-23T02:30:50.561Z,95329.41
2022-10-23T02:31:52.167Z,95336.50
2022-10-23T02:32:55.871Z,95338.78
2022-10-23T02:33:57.578Z,95335.00
2022-10-23T02:34:59.284Z,95326.38
2022-10-23T02:36:00.871Z,95336.06
2022-10-23T02:37:02.683Z,95340.34
2022-10-23T02:38:04.263Z,95329.72
2022-10-23T02:39:05.802Z,95328.97
2022-10-23T02:40:09.436Z,95320.34
2022-10-23T02:41:14.003Z,95324.44
2022-10-23T02:42:25.894Z,95323.69
2022-10-23T02:43:36.795Z,95318.84
2022-10-23T02:44:47.349Z,95317.34
2022-10-23T02:45:58.845Z,95314.00
2022-10-23T02:47:33.355Z,95321.66
2022-10-23T02:49:24.572Z,95316.06
2022-10-23T02:50:40.655Z,95316.28
2022-10-23T02:51:55.965Z,95325.94
2022-10-23T02:53:03.402Z,95319.28
2022-10-23T02:54:20.671Z,95316.28
2022-10-23T02:55:34.589Z,95317.56
2022-10-23T02:56:57.515Z,95329.53
2022-10-23T02:58:14.517Z,95324.44
2022-10-23T02:59:45.590Z,95322.94
2022-10-23T03:00:53.890Z,95329.28
2022-10-23T03:02:03.974Z,95328.53
2022-10-23T03:03:17.293Z,95325.53
2022-10-23T03:04:21.257Z,95328.75
2022-10-23T03:05:27.275Z,95327.78
2022-10-23T03:06:28.816Z,95331.34
2022-10-23T03:07:30.390Z,95329.28
2022-10-23T03:08:44.562Z,95347.13
2022-10-23T03:09:46.478Z,95338.44
2022-10-23T03:11:54.728Z,95331.34
2022-10-23T03:12:56.390Z,95334.13
2022-10-23T03:13:57.914Z,95332.63
2022-10-23T03:14:59.451Z,95342.31
2022-10-23T03:16:00.990Z,95330.38
2022-10-23T03:17:03.107Z,95336.19
2022-10-23T03:18:04.702Z,95332.09
2022-10-23T03:19:06.313Z,95334.13
2022-10-23T03:20:09.046Z,95335.63
2022-10-23T03:21:10.626Z,95336.94
2022-10-23T03:22:12.203Z,95333.38
2022-10-23T03:23:14.041Z,95336.69
2022-10-23T03:24:15.649Z,95331.13
2022-10-23T03:25:17.277Z,95335.44
2022-10-23T03:26:18.844Z,95331.13
2022-10-23T03:27:20.445Z,95340.81
2022-10-23T03:28:22.720Z,95343.06
2022-10-23T03:29:24.227Z,95333.91
2022-10-23T03:30:25.804Z,95341.56
2022-10-23T03:31:27.350Z,95344.91
2022-10-23T03:32:28.921Z,95344.91
2022-10-23T03:33:31.592Z,95340.81
2022-10-23T03:34:33.135Z,95342.09
2022-10-23T03:35:34.675Z,95346.38
2022-10-23T03:36:36.191Z,95347.88
2022-10-23T03:37:37.745Z,95346.38
2022-10-23T03:38:39.259Z,95354.59
2022-10-23T03:39:40.785Z,95351.25
2022-10-23T03:40:43.178Z,95349.75
2022-10-23T03:41:44.945Z,95356.59
2022-10-23T03:42:46.566Z,95355.34
2022-10-23T03:43:48.092Z,95357.59
2022-10-23T03:44:49.842Z,95356.09
2022-10-23T03:45:52.087Z,95360.59
2022-10-23T03:46:53.701Z,95359.31
2022-10-23T03:47:55.233Z,95359.81
2022-10-23T03:48:58.959Z,95361.88
2022-10-23T03:50:00.483Z,95361.13
2022-10-23T03:51:02.037Z,95356.84
2022-10-23T03:52:04.018Z,95363.16
2022-10-23T03:53:05.529Z,95365.97
2022-10-23T03:54:07.752Z,95363.41
2022-10-23T03:55:09.394Z,95359.81
2022-10-23T03:56:10.931Z,95367.28
2022-10-23T03:57:12.678Z,95365.22
2022-10-23T03:58:14.265Z,95367.28
2022-10-23T03:59:16.030Z,95367.28
2022-10-23T04:00:17.758Z,95378.66
2022-10-23T04:01:19.333Z,95375.09
2022-10-23T04:02:21.023Z,95377.38
2022-10-23T04:03:22.730Z,95382.97
2022-10-23T04:04:25.087Z,95382.19
2022-10-23T04:05:26.661Z,95379.41
2022-10-23T04:06:28.209Z,95382.97
2022-10-23T04:07:29.735Z,95384.25
2022-10-23T04:08:31.242Z,95382.97
2022-10-23T04:09:32.834Z,95387.78
2022-10-23T04:10:34.380Z,95388.34
2022-10-23T04:11:36.013Z,95383.72
2022-10-23T04:12:37.568Z,95383.72
2022-10-23T04:13:39.187Z,95378.66
2022-10-23T04:14:40.691Z,95377.91
2022-10-23T04:15:48.541Z,95382.53
2022-10-23T04:16:50.085Z,95386.72
2022-10-23T04:17:51.722Z,95387.03
2022-10-23T04:18:53.625Z,95379.94
2022-10-23T04:19:55.355Z,95379.19
2022-10-23T04:20:56.893Z,95378.44
2022-10-23T04:21:58.758Z,95371.34
2022-10-23T04:23:00.268Z,95374.16
2022-10-23T04:24:01.859Z,95368.75
2022-10-23T04:25:03.684Z,95367.28
2022-10-23T04:26:05.418Z,95375.84
2022-10-23T04:27:06.916Z,95375.44
2022-10-23T04:28:08.458Z,95381.56
2022-10-23T04:29:09.981Z,95384.69
2022-10-23T04:30:12.088Z,95383.19
2022-10-23T04:31:13.658Z,95373.50
2022-10-23T04:32:15.199Z,95380.38
2022-10-23T04:33:16.776Z,95373.50
2022-10-23T04:34:18.855Z,95382.44
2022-10-23T04:35:20.440Z,95374.25
2022-10-23T04:36:21.990Z,95379.84
2022-10-23T04:37:23.558Z,95365.31
2022-10-23T04:38:26.144Z,95373.50
2022-10-23T04:39:27.648Z,95374.25
2022-10-23T04:40:29.155Z,95377.78
2022-10-23T04:41:30.866Z,95365.31
2022-10-23T04:42:32.372Z,95368.34
2022-10-23T04:43:33.922Z,95372.44
2022-10-23T04:44:35.512Z,95373.94
2022-10-23T04:45:37.079Z,95369.84
2022-10-23T04:46:38.645Z,95367.78
2022-10-23T04:47:40.262Z,95362.75
2022-10-23T04:48:41.757Z,95369.84
2022-10-23T04:49:43.256Z,95376.94
2022-10-23T04:51:51.277Z,95377.16
2022-10-23T04:52:57.057Z,95371.34
2022-10-23T04:53:58.577Z,95381.44
2022-10-23T04:55:00.113Z,95374.34
2022-10-23T04:56:01.913Z,95377.16
2022-10-23T04:57:03.611Z,95368.75
2022-10-23T04:58:05.154Z,95371.34
2022-10-23T04:59:06.805Z,95375.09
2022-10-23T05:00:10.519Z,95376.94
2022-10-23T05:01:12.259Z,95386.09
2022-10-23T05:02:13.884Z,95387.03
2022-10-23T05:03:17.606Z,95391.13
2022-10-23T05:04:19.206Z,95388.56
2022-10-23T05:05:20.714Z,95385.22
2022-10-23T05:06:22.639Z,95395.13
2022-10-23T05:07:24.163Z,95395.13
2022-10-23T05:08:25.726Z,95391.25
2022-10-23T05:09:27.311Z,95392.75
2022-10-23T05:10:29.938Z,95395.34
2022-10-23T05:11:31.478Z,95395.34
2022-10-23T05:12:32.975Z,95402.44
2022-10-23T05:13:35.628Z,95399.66
2022-10-23T05:14:37.186Z,95397.59
2022-10-23T05:15:38.738Z,95397.41
2022-10-23T05:16:59.605Z,95406.84
2022-10-23T05:18:13.590Z,95404.25
2022-10-23T05:19:23.446Z,95408.78
2022-10-23T05:20:31.364Z,95397.59
2022-10-23T05:21:35.974Z,95397.59
2022-10-23T05:22:40.335Z,95400.41
2022-10-23T05:23:44.415Z,95400.63
2022-10-23T05:24:49.660Z,95403.63
2022-10-23T05:25:52.608Z,95401.59
2022-10-23T05:26:54.493Z,95398.78
2022-10-23T05:27:56.058Z,95401.81
2022-10-23T05:28:57.672Z,95402.78
2022-10-23T05:29:59.395Z,95415.69
2022-10-23T05:31:03.734Z,95413.44
2022-10-23T05:32:08.786Z,95416.13
2022-10-23T05:33:11.295Z,95409.44
2022-10-23T05:34:16.942Z,95421.19
2022-10-23T05:35:23.182Z,95424.75
2022-10-23T05:36:26.141Z,95422.16
2022-10-23T05:37:28.150Z,95425.16
2022-10-23T05:38:32.956Z,95422.91
2022-10-23T05:39:34.973Z,95434.88
2022-10-23T05:40:36.677Z,95434.31
2022-10-23T05:41:38.195Z,95436.59
2022-10-23T05:42:41.644Z,95440.16
2022-10-23T05:43:43.496Z,95445.75
2022-10-23T05:44:45.002Z,95447.56
2022-10-23T05:45:47.414Z,95452.41
2022-10-23T05:46:48.919Z,95455.72
2022-10-23T05:47:50.535Z,95449.91
2022-10-23T05:48:52.636Z,95462.41
2022-10-23T05:49:54.169Z,95452.72
2022-10-23T05:50:55.690Z,95461.66
2022-10-23T05:51:57.271Z,95458.09
2022-10-23T05:52:58.820Z,95460.88
2022-10-23T05:54:00.343Z,95466.47
2022-10-23T05:55:01.961Z,95456.59
2022-10-23T05:56:05.754Z,95453.78
2022-10-23T05:57:07.386Z,95460.88
2022-10-23T05:58:09.013Z,95462.94
2022-10-23T05:59:10.917Z,95462.41
2022-10-23T06:00:12.990Z,95468.00
2022-10-23T06:01:15.046Z,95476.16
2022-10-23T06:02:16.642Z,95481.75
2022-10-23T06:03:18.279Z,95480.47
2022-10-23T06:04:19.803Z,95486.28
2022-10-23T06:05:21.311Z,95489.28
2022-10-23T06:06:22.833Z,95492.63
2022-10-23T06:07:31.163Z,95489.09
2022-10-23T06:08:35.688Z,95487.78
2022-10-23T06:09:37.243Z,95480.69
2022-10-23T06:10:38.745Z,95482.19
2022-10-23T06:11:40.332Z,95476.59
2022-10-23T06:12:42.088Z,95480.69
2022-10-23T06:13:45.415Z,95477.91
2022-10-23T06:14:47.298Z,95486.28
2022-10-23T06:15:48.905Z,95480.47
2022-10-23T06:16:50.514Z,95484.78
2022-10-23T06:17:52.030Z,95489.09
2022-10-23T06:18:54.240Z,95488.84
2022-10-23T06:20:00.880Z,95481.44
2022-10-23T06:21:02.433Z,95493.19
2022-10-23T06:22:05.321Z,95483.25
2022-10-23T06:23:07.418Z,95492.94
2022-10-23T06:24:11.133Z,95491.44
2022-10-23T06:25:12.679Z,95498.53
2022-10-23T06:26:16.466Z,95498.03
2022-10-23T06:27:17.982Z,95500.06
2022-10-23T06:28:20.695Z,95501.56
2022-10-23T06:29:22.462Z,95498.97
2022-10-23T06:30:24.603Z,95504.59
2022-10-23T06:31:28.257Z,95508.69
2022-10-23T06:32:32.356Z,95507.16
2022-10-23T06:33:34.029Z,95500.81
2022-10-23T06:34:35.561Z,95506.41
2022-10-23T06:35:37.077Z,95513.84
2022-10-23T06:36:38.794Z,95503.38
2022-10-23T06:37:40.370Z,95501.34
2022-10-23T06:38:41.923Z,95503.38
2022-10-23T06:39:43.452Z,95500.28
2022-10-23T06:40:47.466Z,95504.59
2022-10-23T06:41:49.019Z,95502.53
2022-10-23T06:42:50.516Z,95501.25
2022-10-23T06:43:52.028Z,95500.47
2022-10-23T06:44:53.531Z,95508.69
2022-10-23T06:45:55.190Z,95508.88
2022-10-23T06:46:56.846Z,95510.41
2022-10-23T06:47:58.505Z,95511.69
2022-10-23T06:49:00.031Z,95504.59
2022-10-23T06:50:01.614Z,95511.69
2022-10-23T06:51:08.377Z,95510.94
2022-10-23T06:52:23.154Z,95514.72
2022-10-23T06:53:31.434Z,95514.72
2022-10-23T06:54:33.036Z,95507.81
2022-10-23T06:55:34.676Z,95505.34
2022-10-23T06:56:36.382Z,95511.91
2022-10-23T06:57:37.938Z,95520.31
2022-10-23T06:58:39.897Z,95513.41
2022-10-23T06:59:41.521Z,95513.66
2022-10-23T07:00:44.521Z,95511.59
2022-10-23T07:01:46.507Z,95513.66
2022-10-23T07:02:48.237Z,95510.63
2022-10-23T07:03:49.749Z,95510.63
2022-10-23T07:04:51.263Z,95502.44
2022-10-23T07:05:52.849Z,95505.47
2022-10-23T07:06:57.568Z,95513.66
2022-10-23T07:07:59.123Z,95509.53
2022-10-23T07:09:00.635Z,95514.59
2022-10-23T07:10:02.286Z,95506.97
2022-10-23T07:11:05.937Z,95515.38
2022-10-23T07:12:08.631Z,95515.81
2022-10-23T07:13:11.770Z,95513.00
2022-10-23T07:14:13.266Z,95520.13
2022-10-23T07:15:15.843Z,95512.03
2022-10-23T07:16:20.366Z,95515.59
2022-10-23T07:17:21.965Z,95509.22
2022-10-23T07:18:23.538Z,95511.50
2022-10-23T07:19:25.158Z,95513.78
2022-10-23T07:20:26.759Z,95508.69
2022-10-23T07:21:30.347Z,95511.50
2022-10-23T07:22:31.892Z,95510.75
2022-10-23T07:23:33.430Z,95510.00
2022-10-23T07:24:37.164Z,95514.09
2022-10-23T07:25:38.686Z,95505.69
2022-10-23T07:26:41.565Z,95510.00
2022-10-23T07:27:43.309Z,95505.13
2022-10-23T07:28:48.070Z,95508.47
2022-10-23T07:29:52.890Z,95518.38
2022-10-23T07:31:00.535Z,95519.69
2022-10-23T07:32:02.323Z,95512.78
2022-10-23T07:33:03.902Z,95519.69
2022-10-23T07:34:06.336Z,95521.19
2022-10-23T07:35:09.096Z,95512.78
2022-10-23T07:36:10.769Z,95516.56
2022-10-23T07:37:12.396Z,95510.00
2022-10-23T07:38:14.043Z,95505.69
2022-10-23T07:39:15.801Z,95506.44
2022-10-23T07:40:18.802Z,95505.13
2022-10-23T07:41:20.691Z,95503.09
2022-10-23T07:42:22.251Z,95511.72
2022-10-23T07:43:23.994Z,95510.00
2022-10-23T07:44:27.676Z,95508.47
2022-10-23T07:45:29.426Z,95508.91
2022-10-23T07:46:30.948Z,95507.41
2022-10-23T07:47:32.679Z,95501.81
2022-10-23T07:48:34.471Z,95501.81
2022-10-23T07:49:35.970Z,95508.91
2022-10-23T07:50:38.834Z,95515.28
2022-10-23T07:51:40.339Z,95503.31
2022-10-23T07:52:41.879Z,95508.91
2022-10-23T07:53:44.448Z,95516.03
2022-10-23T07:54:45.992Z,95499.97
2022-10-23T07:55:58.657Z,95517.41
2022-10-23T07:57:00.680Z,95508.47
2022-10-23T07:58:02.188Z,95500.41
2022-10-23T07:59:04.424Z,95513.97
2022-10-23T08:00:06.876Z,95509.13
2022-10-23T08:01:17.573Z,95510.94
2022-10-23T08:02:20.774Z,95514.16
2022-10-23T08:03:22.356Z,95509.53
2022-10-23T08:04:24.957Z,95513.66
2022-10-23T08:05:26.474Z,95504.69
2022-10-23T08:06:28.416Z,95505.47
2022-10-23T08:07:29.992Z,95509.78
2022-10-23T08:08:31.543Z,95506.75
2022-10-23T08:09:34.530Z,95512.56
2022-10-23T08:10:36.490Z,95514.59
2022-10-23T08:11:38.068Z,95509.78
2022-10-23T08:12:39.700Z,95506.97
2022-10-23T08:13:41.682Z,95511.50
2022-10-23T08:14:43.202Z,95517.09
2022-10-23T08:15:45.244Z,95508.69
2022-10-23T08:16:46.887Z,95527.00
2022-10-23T08:17:48.446Z,95519.38
2022-10-23T08:18:50.964Z,95511.28
2022-10-23T08:19:52.550Z,95517.09
2022-10-23T08:20:54.235Z,95522.91
2022-10-23T08:21:57.289Z,95526.78
2022-10-23T08:22:58.818Z,95515.28
2022-10-23T08:24:01.167Z,95518.81
2022-10-23T08:25:02.893Z,95518.06
2022-10-23T08:26:06.542Z,95505.38
2022-10-23T08:27:08.061Z,95508.91
2022-10-23T08:28:10.084Z,95510.41
2022-10-23T08:29:11.657Z,95516.78
2022-10-23T08:30:13.334Z,95503.31
2022-10-23T08:31:17.884Z,95513.00
2022-10-23T08:32:19.366Z,95513.78
2022-10-23T08:33:21.513Z,95518.63
2022-10-23T08:34:23.937Z,95515.59
2022-10-23T08:35:25.656Z,95501.81
2022-10-23T08:36:28.802Z,95508.69
2022-10-23T08:37:30.433Z,95518.63
2022-10-23T08:38:33.764Z,95514.28
2022-10-23T08:39:36.347Z,95513.97
2022-10-23T08:40:38.198Z,95507.09
2022-10-23T08:41:47.730Z,95514.72
2022-10-23T08:43:05.739Z,95512.47
2022-10-23T08:44:21.610Z,95508.91
2022-10-23T08:45:39.662Z,95507.41
2022-10-23T08:46:45.286Z,95514.19
2022-10-23T08:47:53.262Z,95514.19
2022-10-23T08:49:07.540Z,95514.53
2022-10-23T08:51:41.904Z,95511.16
2022-10-23T08:53:07.413Z,95513.22
2022-10-23T08:54:21.623Z,95510.41
2022-10-23T08:55:43.091Z,95508.91
2022-10-23T08:56:49.897Z,95506.31
2022-10-23T08:58:15.129Z,95510.00
2022-10-23T08:59:32.896Z,95513.78
2022-10-23T09:00:34.724Z,95508.28
2022-10-23T09:01:44.101Z,95506.44
2022-10-23T09:02:49.720Z,95512.47
2022-10-23T09:03:51.294Z,95517.13
2022-10-23T09:04:55.716Z,95502.06
2022-10-23T09:06:20.060Z,95512.34
2022-10-23T09:07:29.555Z,95508.72
2022-10-23T09:08:37.033Z,95508.72
2022-10-23T09:10:05.716Z,95511.28
2022-10-23T09:11:24.322Z,95518.84
2022-10-23T09:12:29.091Z,95522.59
2022-10-23T09:13:30.622Z,95510.66
2022-10-23T09:14:35.251Z,95519.59
2022-10-23T09:15:45.584Z,95517.75
2022-10-23T09:17:08.292Z,95524.09
2022-10-23T09:18:15.292Z,95506.78
2022-10-23T09:19:20.463Z,95512.91
2022-10-23T09:20:25.164Z,95506.78
2022-10-23T09:21:30.496Z,95513.88
2022-10-23T09:22:32.235Z,95507.53
2022-10-23T09:23:33.842Z,95510.34
2022-10-23T09:24:36.467Z,95505.50
2022-10-23T09:25:40.414Z,95512.38
2022-10-23T09:26:42.819Z,95509.59
2022-10-23T09:27:56.110Z,95500.97
2022-10-23T09:29:15.275Z,95508.09
2022-10-23T09:30:35.518Z,95500.22
2022-10-23T09:31:51.460Z,95508.59
2022-10-23T09:32:53.035Z,95499.88
2022-10-23T09:33:56.872Z,95494.28
2022-10-23T09:34:58.453Z,95500.22
2022-10-23T09:36:08.916Z,95497.72
2022-10-23T09:37:26.074Z,95494.94
2022-10-23T09:38:33.164Z,95493.09
2022-10-23T09:39:36.856Z,95504.00
2022-10-23T09:40:42.045Z,95491.28
2022-10-23T09:41:43.611Z,95492.78
2022-10-23T09:43:18.945Z,95489.56
2022-10-23T09:44:23.721Z,95494.28
2022-10-23T09:45:29.050Z,95494.28
2022-10-23T09:46:38.929Z,95493.09
2022-10-23T09:47:40.705Z,95495.38
2022-10-23T09:48:42.551Z,95493.84
2022-10-23T09:49:49.887Z,95486.00
2022-10-23T09:50:55.896Z,95493.53
2022-10-23T09:52:12.966Z,95487.50
2022-10-23T09:53:26.481Z,95487.19
2022-10-23T09:54:31.125Z,95484.63
2022-10-23T09:55:32.940Z,95483.09
2022-10-23T09:56:41.869Z,95481.59
2022-10-23T09:57:45.004Z,95473.19
2022-10-23T09:58:56.409Z,95487.94
2022-10-23T10:00:22.039Z,95473.94
2022-10-23T10:01:45.604Z,95476.22
2022-10-23T10:03:03.294Z,95477.75
2022-10-23T10:04:04.799Z,95473.66
2022-10-23T10:05:25.232Z,95479.31
2022-10-23T10:06:30.389Z,95470.09
2022-10-23T10:07:34.713Z,95474.97
2022-10-23T10:08:47.733Z,95467.81
2022-10-23T10:09:50.434Z,95469.34
2022-10-23T10:10:58.043Z,95462.22
2022-10-23T10:12:09.436Z,95466.31
2022-10-23T10:13:34.617Z,95460.69
2022-10-23T10:14:41.888Z,95469.56
2022-10-23T10:15:49.834Z,95466.75
2022-10-23T10:16:58.738Z,95463.75
2022-10-23T10:18:14.915Z,95461.78
2022-10-23T10:19:39.533Z,95469.09
2022-10-23T10:20:49.939Z,95462.22
2022-10-23T10:22:22.487Z,95469.66
2022-10-23T10:23:34.359Z,95466.56
2022-10-23T10:24:41.756Z,95452.56
2022-10-23T10:26:02.714Z,95464.28
2022-10-23T10:27:36.278Z,95449.75
2022-10-23T10:28:58.834Z,95450.28
2022-10-23T10:30:09.438Z,95455.56
2022-10-23T10:31:32.141Z,95448.00
2022-10-23T10:32:45.723Z,95465.03
2022-10-23T10:33:56.210Z,95454.34
2022-10-23T10:35:19.103Z,95452.84
2022-10-23T10:36:45.459Z,95452.84
2022-10-23T10:37:53.162Z,95449.97
2022-10-23T10:39:03.867Z,95442.84
2022-10-23T10:40:26.538Z,95448.47
2022-10-23T10:41:46.372Z,95449.97
2022-10-23T10:43:03.280Z,95446.69
2022-10-23T10:44:07.451Z,95448.47
2022-10-23T10:45:18.443Z,95444.34
2022-10-23T10:46:35.871Z,95445.44
2022-10-23T10:48:00.034Z,95446.97
2022-10-23T10:49:15.511Z,95448.13
2022-10-23T10:50:22.911Z,95437.69
2022-10-23T10:51:34.670Z,95445.84
2022-10-23T10:53:14.167Z,95445.66
2022-10-23T10:54:28.276Z,95444.59
2022-10-23T10:55:39.098Z,95439.94
2022-10-23T10:56:43.843Z,95434.34
2022-10-23T10:58:21.775Z,95429.84
2022-10-23T10:59:33.556Z,95428.75
2022-10-23T11:00:35.582Z,95431.22
2022-10-23T11:01:44.200Z,95434.34
2022-10-23T11:02:48.884Z,95435.53
2022-10-23T11:04:10.697Z,95434.00
2022-10-23T11:05:19.510Z,95427.25
2022-10-23T11:06:24.499Z,95435.13
2022-10-23T11:07:34.073Z,95435.13
2022-10-23T11:08:49.903Z,95428.41
2022-10-23T11:10:04.751Z,95435.53
2022-10-23T11:11:19.101Z,95426.16
2022-10-23T11:12:27.424Z,95424.34
2022-10-23T11:13:33.598Z,95426.91
2022-10-23T11:14:35.486Z,95424.53
2022-10-23T11:15:44.041Z,95420.75
2022-10-23T11:16:49.684Z,95428.63
2022-10-23T11:17:58.539Z,95422.28
2022-10-23T11:19:20.550Z,95429.94
2022-10-23T11:20:27.803Z,95410.53
2022-10-23T11:21:38.362Z,95421.75
2022-10-23T11:22:53.628Z,95415.94
2022-10-23T11:24:16.910Z,95420.25
2022-10-23T11:26:01.873Z,95411.84
2022-10-23T11:27:12.623Z,95410.13
2022-10-23T11:28:56.058Z,95416.38
2022-10-23T11:30:18.503Z,95405.16
2022-10-23T11:31:45.541Z,95406.25
2022-10-23T11:33:47.147Z,95400.13
2022-10-23T11:34:52.048Z,95406.00
2022-10-23T11:36:16.851Z,95399.56
2022-10-23T11:37:20.475Z,95401.53
2022-10-23T11:38:29.882Z,95394.72
2022-10-23T11:39:33.950Z,95397.75
2022-10-23T11:40:35.963Z,95393.66
2022-10-23T11:41:37.570Z,95395.16
2022-10-23T11:42:39.079Z,95391.81
2022-10-23T11:43:48.422Z,95390.09
2022-10-23T11:44:50.365Z,95391.50
2022-10-23T11:45:51.905Z,95381.03
2022-10-23T11:47:05.361Z,95385.16
2022-10-23T11:48:40.161Z,95384.38
2022-10-23T11:49:41.691Z,95379.75
2022-10-23T11:50:49.578Z,95386.63
2022-10-23T11:52:04.979Z,95381.03
2022-10-23T11:53:23.211Z,95381.47
2022-10-23T11:54:27.180Z,95373.25
2022-10-23T11:55:30.950Z,95369.19
2022-10-23T11:56:34.194Z,95369.19
2022-10-23T11:57:35.689Z,95369.19
2022-10-23T11:58:48.691Z,95373.25
2022-10-23T11:59:50.156Z,95372.19
2022-10-23T12:01:18.434Z,95371.22
2022-10-23T12:02:42.766Z,95370.69
2022-10-23T12:04:17.920Z,95370.47
2022-10-23T12:05:31.837Z,95366.56
2022-10-23T12:06:41.594Z,95364.53
2022-10-23T12:07:44.228Z,95377.44
2022-10-23T12:08:52.197Z,95366.56
2022-10-23T12:10:03.276Z,95377.03
2022-10-23T12:11:05.337Z,95368.53
2022-10-23T12:12:09.703Z,95370.34
2022-10-23T12:13:31.002Z,95368.06
2022-10-23T12:14:34.066Z,95365.16
2022-10-23T12:15:35.595Z,95362.38
2022-10-23T12:16:37.131Z,95365.50
2022-10-23T12:17:40.186Z,95363.44
2022-10-23T12:18:53.240Z,95359.47
2022-10-23T12:20:14.665Z,95360.97
2022-10-23T12:21:28.120Z,95364.19
2022-10-23T12:22:58.607Z,95360.13
2022-10-23T12:24:47.866Z,95361.41
2022-10-23T12:26:07.702Z,95360.31
2022-10-23T12:27:32.187Z,95355.47
2022-10-23T12:29:19.386Z,95357.31
2022-10-23T12:31:08.550Z,95360.53
2022-10-23T12:32:39.519Z,95367.84
2022-10-23T12:33:53.315Z,95363.75
2022-10-23T12:35:16.432Z,95356.84
2022-10-23T12:36:26.974Z,95354.06
2022-10-23T12:37:59.539Z,95355.13
2022-10-23T12:39:01.175Z,95362.13
2022-10-23T12:40:07.595Z,95352.97
2022-10-23T12:41:16.635Z,95360.41
2022-10-23T12:42:23.471Z,95363.94
2022-10-23T12:43:27.318Z,95361.38
2022-10-23T12:44:29.558Z,95361.56
2022-10-23T12:45:40.078Z,95363.44
2022-10-23T12:46:48.713Z,95364.19
2022-10-23T12:47:51.971Z,95352.41
2022-10-23T12:48:54.805Z,95360.06
2022-10-23T12:49:56.335Z,95364.19
2022-10-23T12:50:58.026Z,95364.19
2022-10-23T12:51:59.554Z,95368.25
2022-10-23T12:53:04.162Z,95366.22
2022-10-23T12:54:19.017Z,95359.44
2022-10-23T12:55:21.127Z,95365.69
2022-10-23T12:56:25.596Z,95364.19
2022-10-23T12:57:30.290Z,95362.66
2022-10-23T12:58:34.639Z,95361.38
2022-10-23T12:59:41.843Z,95368.25
2022-10-23T13:00:51.159Z,95362.66
2022-10-23T13:01:54.389Z,95364.19
2022-10-23T13:03:04.022Z,95357.03
2022-10-23T13:04:13.934Z,95367.16
2022-10-23T13:05:19.544Z,95369.78
2022-10-23T13:06:21.618Z,95358.78
2022-10-23T13:07:26.768Z,95367.72
2022-10-23T13:08:41.900Z,95373.84
2022-10-23T13:09:45.601Z,95362.00